sensor_id;sensor_type;location;lat;lon;timestamp;P1;durP1;ratioP1;P2;durP2;ratioP2
38787;SDS011;24536;45.488;12.238;2023-09-19T00:01:46;9.98;;;6.55;;
38787;SDS011;24536;45.488;12.238;2023-09-19T00:04:12;9.23;;;5.80;;
38787;SDS011;24536;45.488;12.238;2023-09-19T00:06:39;18.17;;;6.88;;
38787;SDS011;24536;45.488;12.238;2023-09-19T00:09:05;11.15;;;7.00;;
38787;SDS011;24536;45.488;12.238;2023-09-19T00:14:01;11.40;;;6.38;;
38787;SDS011;24536;45.488;12.238;2023-09-19T00:16:27;12.75;;;6.47;;
38787;SDS011;24536;45.488;12.238;2023-09-19T00:18:53;11.85;;;6.10;;
38787;SDS011;24536;45.488;12.238;2023-09-19T00:21:18;15.65;;;6.88;;
38787;SDS011;24536;45.488;12.238;2023-09-19T00:23:44;9.25;;;5.80;;
38787;SDS011;24536;45.488;12.238;2023-09-19T00:26:10;11.38;;;6.38;;
38787;SDS011;24536;45.488;12.238;2023-09-19T00:28:36;9.55;;;5.90;;
38787;SDS011;24536;45.488;12.238;2023-09-19T00:31:01;9.73;;;6.57;;
38787;SDS011;24536;45.488;12.238;2023-09-19T00:33:27;8.88;;;6.18;;
38787;SDS011;24536;45.488;12.238;2023-09-19T00:35:54;12.95;;;6.18;;
38787;SDS011;24536;45.488;12.238;2023-09-19T00:38:22;13.20;;;6.35;;
38787;SDS011;24536;45.488;12.238;2023-09-19T00:40:51;12.10;;;4.82;;
38787;SDS011;24536;45.488;12.238;2023-09-19T00:43:18;13.13;;;5.22;;
38787;SDS011;24536;45.488;12.238;2023-09-19T00:45:46;10.82;;;5.10;;
38787;SDS011;24536;45.488;12.238;2023-09-19T00:48:13;11.27;;;5.40;;
38787;SDS011;24536;45.488;12.238;2023-09-19T00:50:43;10.80;;;5.57;;
38787;SDS011;24536;45.488;12.238;2023-09-19T00:53:12;17.17;;;5.95;;
38787;SDS011;24536;45.488;12.238;2023-09-19T00:58:07;10.70;;;4.90;;
38787;SDS011;24536;45.488;12.238;2023-09-19T01:00:35;8.00;;;4.47;;
38787;SDS011;24536;45.488;12.238;2023-09-19T01:03:01;9.80;;;4.93;;
38787;SDS011;24536;45.488;12.238;2023-09-19T01:05:27;14.50;;;4.43;;
38787;SDS011;24536;45.488;12.238;2023-09-19T01:07:53;12.88;;;4.45;;
38787;SDS011;24536;45.488;12.238;2023-09-19T01:10:19;10.40;;;4.30;;
38787;SDS011;24536;45.488;12.238;2023-09-19T01:32:04;12.00;;;4.90;;
38787;SDS011;24536;45.488;12.238;2023-09-19T01:37:12;8.95;;;3.95;;
38787;SDS011;24536;45.488;12.238;2023-09-19T01:39:39;13.40;;;5.60;;
38787;SDS011;24536;45.488;12.238;2023-09-19T01:42:12;13.50;;;5.30;;
38787;SDS011;24536;45.488;12.238;2023-09-19T01:47:32;8.65;;;3.65;;
38787;SDS011;24536;45.488;12.238;2023-09-19T01:54:08;11.05;;;3.72;;
38787;SDS011;24536;45.488;12.238;2023-09-19T01:56:21;9.57;;;4.30;;
38787;SDS011;24536;45.488;12.238;2023-09-19T01:58:55;11.25;;;4.10;;
38787;SDS011;24536;45.488;12.238;2023-09-19T02:01:24;8.43;;;3.25;;
38787;SDS011;24536;45.488;12.238;2023-09-19T02:03:51;8.35;;;4.07;;
38787;SDS011;24536;45.488;12.238;2023-09-19T02:06:18;9.00;;;3.75;;
38787;SDS011;24536;45.488;12.238;2023-09-19T02:08:44;7.60;;;3.53;;
38787;SDS011;24536;45.488;12.238;2023-09-19T02:11:11;6.88;;;3.33;;
38787;SDS011;24536;45.488;12.238;2023-09-19T02:13:38;7.75;;;4.13;;
38787;SDS011;24536;45.488;12.238;2023-09-19T02:16:04;12.30;;;4.03;;
38787;SDS011;24536;45.488;12.238;2023-09-19T02:18:30;11.70;;;3.63;;
38787;SDS011;24536;45.488;12.238;2023-09-19T02:20:56;15.48;;;5.32;;
38787;SDS011;24536;45.488;12.238;2023-09-19T02:23:24;9.00;;;4.32;;
38787;SDS011;24536;45.488;12.238;2023-09-19T02:25:54;9.30;;;3.83;;
38787;SDS011;24536;45.488;12.238;2023-09-19T02:28:20;9.43;;;4.17;;
38787;SDS011;24536;45.488;12.238;2023-09-19T02:30:47;9.93;;;4.40;;
38787;SDS011;24536;45.488;12.238;2023-09-19T02:33:16;6.63;;;3.47;;
38787;SDS011;24536;45.488;12.238;2023-09-19T02:35:45;12.57;;;4.97;;
38787;SDS011;24536;45.488;12.238;2023-09-19T02:38:11;9.75;;;4.35;;
38787;SDS011;24536;45.488;12.238;2023-09-19T02:40:37;9.18;;;4.00;;
38787;SDS011;24536;45.488;12.238;2023-09-19T02:43:03;9.20;;;4.00;;
38787;SDS011;24536;45.488;12.238;2023-09-19T02:45:30;9.70;;;3.75;;
38787;SDS011;24536;45.488;12.238;2023-09-19T02:47:57;11.75;;;4.25;;
38787;SDS011;24536;45.488;12.238;2023-09-19T02:50:23;10.73;;;4.00;;
38787;SDS011;24536;45.488;12.238;2023-09-19T02:52:49;8.45;;;4.03;;
38787;SDS011;24536;45.488;12.238;2023-09-19T02:55:15;6.80;;;3.85;;
38787;SDS011;24536;45.488;12.238;2023-09-19T02:57:50;6.28;;;3.45;;
38787;SDS011;24536;45.488;12.238;2023-09-19T03:00:22;9.25;;;3.25;;
38787;SDS011;24536;45.488;12.238;2023-09-19T03:02:48;7.00;;;3.53;;
38787;SDS011;24536;45.488;12.238;2023-09-19T03:05:21;8.82;;;4.22;;
38787;SDS011;24536;45.488;12.238;2023-09-19T03:07:48;10.25;;;3.60;;
38787;SDS011;24536;45.488;12.238;2023-09-19T03:10:18;8.88;;;3.97;;
38787;SDS011;24536;45.488;12.238;2023-09-19T03:12:46;6.38;;;3.85;;
38787;SDS011;24536;45.488;12.238;2023-09-19T03:15:15;12.20;;;4.82;;
38787;SDS011;24536;45.488;12.238;2023-09-19T03:17:45;10.40;;;4.20;;
38787;SDS011;24536;45.488;12.238;2023-09-19T03:20:12;8.57;;;4.38;;
38787;SDS011;24536;45.488;12.238;2023-09-19T03:22:40;9.38;;;3.30;;
38787;SDS011;24536;45.488;12.238;2023-09-19T03:25:06;12.63;;;4.30;;
38787;SDS011;24536;45.488;12.238;2023-09-19T03:27:35;11.73;;;4.07;;
38787;SDS011;24536;45.488;12.238;2023-09-19T03:30:03;7.90;;;3.53;;
38787;SDS011;24536;45.488;12.238;2023-09-19T03:32:36;9.43;;;3.88;;
38787;SDS011;24536;45.488;12.238;2023-09-19T03:35:08;8.43;;;3.88;;
38787;SDS011;24536;45.488;12.238;2023-09-19T03:37:36;8.98;;;3.65;;
38787;SDS011;24536;45.488;12.238;2023-09-19T03:40:02;13.13;;;3.92;;
38787;SDS011;24536;45.488;12.238;2023-09-19T03:42:30;13.27;;;4.15;;
38787;SDS011;24536;45.488;12.238;2023-09-19T03:44:56;9.52;;;3.75;;
38787;SDS011;24536;45.488;12.238;2023-09-19T03:47:22;9.80;;;4.90;;
38787;SDS011;24536;45.488;12.238;2023-09-19T03:49:48;11.35;;;4.22;;
38787;SDS011;24536;45.488;12.238;2023-09-19T03:52:14;14.82;;;4.85;;
38787;SDS011;24536;45.488;12.238;2023-09-19T03:54:42;9.55;;;4.35;;
38787;SDS011;24536;45.488;12.238;2023-09-19T03:57:09;12.57;;;4.22;;
38787;SDS011;24536;45.488;12.238;2023-09-19T03:59:37;6.28;;;3.67;;
38787;SDS011;24536;45.488;12.238;2023-09-19T04:02:03;7.25;;;3.80;;
38787;SDS011;24536;45.488;12.238;2023-09-19T04:04:29;15.68;;;5.15;;
38787;SDS011;24536;45.488;12.238;2023-09-19T04:06:55;10.90;;;4.72;;
38787;SDS011;24536;45.488;12.238;2023-09-19T04:09:21;9.75;;;4.55;;
38787;SDS011;24536;45.488;12.238;2023-09-19T04:11:46;11.23;;;4.15;;
38787;SDS011;24536;45.488;12.238;2023-09-19T04:14:12;14.10;;;4.75;;
38787;SDS011;24536;45.488;12.238;2023-09-19T04:16:38;8.30;;;3.70;;
38787;SDS011;24536;45.488;12.238;2023-09-19T04:19:04;10.68;;;4.43;;
38787;SDS011;24536;45.488;12.238;2023-09-19T04:21:30;7.70;;;3.30;;
38787;SDS011;24536;45.488;12.238;2023-09-19T04:23:57;9.00;;;2.95;;
38787;SDS011;24536;45.488;12.238;2023-09-19T04:26:22;9.27;;;4.25;;
38787;SDS011;24536;45.488;12.238;2023-09-19T04:28:48;13.52;;;3.63;;
38787;SDS011;24536;45.488;12.238;2023-09-19T04:31:14;16.45;;;4.13;;
38787;SDS011;24536;45.488;12.238;2023-09-19T04:33:39;9.40;;;3.60;;
38787;SDS011;24536;45.488;12.238;2023-09-19T04:36:06;12.13;;;4.43;;
38787;SDS011;24536;45.488;12.238;2023-09-19T04:38:32;8.63;;;3.70;;
38787;SDS011;24536;45.488;12.238;2023-09-19T04:40:58;10.98;;;3.47;;
38787;SDS011;24536;45.488;12.238;2023-09-19T04:43:24;9.38;;;4.22;;
38787;SDS011;24536;45.488;12.238;2023-09-19T04:45:50;13.50;;;4.20;;
38787;SDS011;24536;45.488;12.238;2023-09-19T04:48:16;10.10;;;4.25;;
38787;SDS011;24536;45.488;12.238;2023-09-19T04:50:42;7.72;;;3.67;;
38787;SDS011;24536;45.488;12.238;2023-09-19T04:53:09;9.02;;;4.20;;
38787;SDS011;24536;45.488;12.238;2023-09-19T04:55:34;7.32;;;4.07;;
38787;SDS011;24536;45.488;12.238;2023-09-19T04:58:01;8.05;;;4.00;;
38787;SDS011;24536;45.488;12.238;2023-09-19T05:00:27;12.43;;;3.92;;
38787;SDS011;24536;45.488;12.238;2023-09-19T05:02:55;12.50;;;4.78;;
38787;SDS011;24536;45.488;12.238;2023-09-19T05:05:22;7.85;;;4.00;;
38787;SDS011;24536;45.488;12.238;2023-09-19T05:07:48;10.35;;;4.00;;
38787;SDS011;24536;45.488;12.238;2023-09-19T05:10:14;7.05;;;4.03;;
38787;SDS011;24536;45.488;12.238;2023-09-19T05:12:45;13.35;;;3.53;;
38787;SDS011;24536;45.488;12.238;2023-09-19T05:15:13;8.20;;;4.22;;
38787;SDS011;24536;45.488;12.238;2023-09-19T05:17:51;11.90;;;3.85;;
38787;SDS011;24536;45.488;12.238;2023-09-19T05:20:20;9.70;;;4.07;;
38787;SDS011;24536;45.488;12.238;2023-09-19T05:25:33;13.70;;;3.92;;
38787;SDS011;24536;45.488;12.238;2023-09-19T05:28:04;12.05;;;4.20;;
38787;SDS011;24536;45.488;12.238;2023-09-19T05:33:08;12.10;;;4.20;;
38787;SDS011;24536;45.488;12.238;2023-09-19T05:35:34;15.65;;;4.88;;
38787;SDS011;24536;45.488;12.238;2023-09-19T05:38:04;7.28;;;4.05;;
38787;SDS011;24536;45.488;12.238;2023-09-19T05:40:33;8.95;;;4.25;;
38787;SDS011;24536;45.488;12.238;2023-09-19T05:43:00;13.90;;;6.75;;
38787;SDS011;24536;45.488;12.238;2023-09-19T05:45:27;15.65;;;6.40;;
38787;SDS011;24536;45.488;12.238;2023-09-19T05:47:53;8.77;;;5.15;;
38787;SDS011;24536;45.488;12.238;2023-09-19T05:50:29;14.70;;;4.88;;
38787;SDS011;24536;45.488;12.238;2023-09-19T05:52:55;12.48;;;6.00;;
38787;SDS011;24536;45.488;12.238;2023-09-19T05:55:21;15.48;;;5.80;;
38787;SDS011;24536;45.488;12.238;2023-09-19T05:57:50;14.23;;;5.53;;
38787;SDS011;24536;45.488;12.238;2023-09-19T06:00:18;13.30;;;5.57;;
38787;SDS011;24536;45.488;12.238;2023-09-19T06:02:49;12.27;;;6.40;;
38787;SDS011;24536;45.488;12.238;2023-09-19T06:05:18;10.20;;;5.82;;
38787;SDS011;24536;45.488;12.238;2023-09-19T06:07:45;10.77;;;6.65;;
38787;SDS011;24536;45.488;12.238;2023-09-19T06:10:12;13.60;;;6.50;;
38787;SDS011;24536;45.488;12.238;2023-09-19T06:12:41;10.27;;;6.47;;
38787;SDS011;24536;45.488;12.238;2023-09-19T06:15:11;12.25;;;5.60;;
38787;SDS011;24536;45.488;12.238;2023-09-19T06:17:45;13.95;;;8.90;;
38787;SDS011;24536;45.488;12.238;2023-09-19T06:20:12;9.77;;;6.70;;
38787;SDS011;24536;45.488;12.238;2023-09-19T06:22:40;12.45;;;6.80;;
38787;SDS011;24536;45.488;12.238;2023-09-19T06:25:07;11.90;;;6.43;;
38787;SDS011;24536;45.488;12.238;2023-09-19T06:27:36;13.55;;;7.05;;
38787;SDS011;24536;45.488;12.238;2023-09-19T06:30:02;10.95;;;6.82;;
38787;SDS011;24536;45.488;12.238;2023-09-19T06:32:28;13.27;;;7.25;;
38787;SDS011;24536;45.488;12.238;2023-09-19T06:34:54;20.33;;;8.07;;
38787;SDS011;24536;45.488;12.238;2023-09-19T06:37:20;15.50;;;7.78;;
38787;SDS011;24536;45.488;12.238;2023-09-19T06:39:47;10.88;;;6.93;;
38787;SDS011;24536;45.488;12.238;2023-09-19T06:42:14;13.20;;;7.85;;
38787;SDS011;24536;45.488;12.238;2023-09-19T06:44:42;22.17;;;10.35;;
38787;SDS011;24536;45.488;12.238;2023-09-19T06:47:08;10.90;;;6.30;;
38787;SDS011;24536;45.488;12.238;2023-09-19T06:49:35;15.45;;;7.50;;
38787;SDS011;24536;45.488;12.238;2023-09-19T06:52:01;19.00;;;6.43;;
38787;SDS011;24536;45.488;12.238;2023-09-19T06:54:27;17.98;;;7.15;;
38787;SDS011;24536;45.488;12.238;2023-09-19T06:56:56;10.63;;;6.30;;
38787;SDS011;24536;45.488;12.238;2023-09-19T06:59:23;11.43;;;6.00;;
38787;SDS011;24536;45.488;12.238;2023-09-19T07:01:49;11.88;;;6.70;;
38787;SDS011;24536;45.488;12.238;2023-09-19T07:04:16;11.10;;;5.80;;
38787;SDS011;24536;45.488;12.238;2023-09-19T07:06:44;19.20;;;8.35;;
38787;SDS011;24536;45.488;12.238;2023-09-19T07:09:14;11.68;;;6.15;;
38787;SDS011;24536;45.488;12.238;2023-09-19T07:11:40;8.75;;;5.82;;
38787;SDS011;24536;45.488;12.238;2023-09-19T07:14:07;17.42;;;7.78;;
38787;SDS011;24536;45.488;12.238;2023-09-19T07:16:36;11.65;;;6.32;;
38787;SDS011;24536;45.488;12.238;2023-09-19T07:19:04;12.63;;;7.28;;
38787;SDS011;24536;45.488;12.238;2023-09-19T07:21:30;10.95;;;6.28;;
38787;SDS011;24536;45.488;12.238;2023-09-19T07:23:59;14.35;;;7.18;;
38787;SDS011;24536;45.488;12.238;2023-09-19T07:26:25;15.95;;;7.00;;
38787;SDS011;24536;45.488;12.238;2023-09-19T07:28:53;10.15;;;5.88;;
38787;SDS011;24536;45.488;12.238;2023-09-19T07:31:19;10.38;;;5.47;;
38787;SDS011;24536;45.488;12.238;2023-09-19T07:33:45;10.02;;;5.50;;
38787;SDS011;24536;45.488;12.238;2023-09-19T07:36:11;12.02;;;6.80;;
38787;SDS011;24536;45.488;12.238;2023-09-19T07:41:07;14.65;;;6.65;;
38787;SDS011;24536;45.488;12.238;2023-09-19T07:43:36;17.53;;;7.93;;
38787;SDS011;24536;45.488;12.238;2023-09-19T07:46:07;9.23;;;5.00;;
38787;SDS011;24536;45.488;12.238;2023-09-19T07:48:36;7.88;;;5.18;;
38787;SDS011;24536;45.488;12.238;2023-09-19T07:51:07;8.15;;;5.05;;
38787;SDS011;24536;45.488;12.238;2023-09-19T07:53:34;14.35;;;7.55;;
38787;SDS011;24536;45.488;12.238;2023-09-19T07:56:04;8.57;;;5.63;;
38787;SDS011;24536;45.488;12.238;2023-09-19T07:58:31;9.43;;;5.53;;
38787;SDS011;24536;45.488;12.238;2023-09-19T08:01:08;13.18;;;4.53;;
38787;SDS011;24536;45.488;12.238;2023-09-19T08:03:36;7.65;;;4.70;;
38787;SDS011;24536;45.488;12.238;2023-09-19T08:06:09;11.98;;;6.82;;
38787;SDS011;24536;45.488;12.238;2023-09-19T08:08:35;8.05;;;5.13;;
38787;SDS011;24536;45.488;12.238;2023-09-19T08:11:02;9.85;;;5.13;;
38787;SDS011;24536;45.488;12.238;2023-09-19T08:13:36;15.82;;;5.22;;
38787;SDS011;24536;45.488;12.238;2023-09-19T08:16:08;12.93;;;4.15;;
38787;SDS011;24536;45.488;12.238;2023-09-19T08:18:37;10.93;;;5.07;;
38787;SDS011;24536;45.488;12.238;2023-09-19T08:21:05;10.40;;;4.40;;
38787;SDS011;24536;45.488;12.238;2023-09-19T08:23:33;15.55;;;5.20;;
38787;SDS011;24536;45.488;12.238;2023-09-19T08:25:58;7.68;;;4.47;;
38787;SDS011;24536;45.488;12.238;2023-09-19T08:28:28;20.55;;;8.30;;
38787;SDS011;24536;45.488;12.238;2023-09-19T08:30:54;9.23;;;4.85;;
38787;SDS011;24536;45.488;12.238;2023-09-19T08:33:20;14.82;;;4.50;;
38787;SDS011;24536;45.488;12.238;2023-09-19T08:35:46;7.38;;;4.10;;
38787;SDS011;24536;45.488;12.238;2023-09-19T08:38:11;10.00;;;5.07;;
38787;SDS011;24536;45.488;12.238;2023-09-19T08:40:39;5.95;;;4.00;;
38787;SDS011;24536;45.488;12.238;2023-09-19T08:43:07;8.73;;;4.75;;
38787;SDS011;24536;45.488;12.238;2023-09-19T08:45:33;8.30;;;4.68;;
38787;SDS011;24536;45.488;12.238;2023-09-19T08:48:20;6.38;;;4.43;;
38787;SDS011;24536;45.488;12.238;2023-09-19T08:50:56;10.45;;;5.43;;
38787;SDS011;24536;45.488;12.238;2023-09-19T08:56:16;15.00;;;6.00;;
38787;SDS011;24536;45.488;12.238;2023-09-19T09:01:49;8.38;;;4.00;;
38787;SDS011;24536;45.488;12.238;2023-09-19T09:04:18;7.43;;;3.80;;
38787;SDS011;24536;45.488;12.238;2023-09-19T09:06:45;8.43;;;4.13;;
38787;SDS011;24536;45.488;12.238;2023-09-19T09:09:14;10.23;;;4.07;;
38787;SDS011;24536;45.488;12.238;2023-09-19T09:11:40;6.75;;;3.63;;
38787;SDS011;24536;45.488;12.238;2023-09-19T09:14:06;8.50;;;3.65;;
38787;SDS011;24536;45.488;12.238;2023-09-19T09:19:01;9.27;;;4.00;;
38787;SDS011;24536;45.488;12.238;2023-09-19T09:21:27;6.65;;;3.38;;
38787;SDS011;24536;45.488;12.238;2023-09-19T09:23:54;8.07;;;3.60;;
38787;SDS011;24536;45.488;12.238;2023-09-19T09:29:04;6.22;;;3.47;;
38787;SDS011;24536;45.488;12.238;2023-09-19T09:31:30;8.82;;;3.63;;
38787;SDS011;24536;45.488;12.238;2023-09-19T09:33:56;5.43;;;3.05;;
38787;SDS011;24536;45.488;12.238;2023-09-19T09:36:35;4.90;;;2.83;;
38787;SDS011;24536;45.488;12.238;2023-09-19T09:39:05;8.18;;;3.30;;
38787;SDS011;24536;45.488;12.238;2023-09-19T09:41:44;4.93;;;3.08;;
38787;SDS011;24536;45.488;12.238;2023-09-19T09:44:14;15.85;;;6.80;;
38787;SDS011;24536;45.488;12.238;2023-09-19T09:46:44;7.88;;;5.13;;
38787;SDS011;24536;45.488;12.238;2023-09-19T09:49:24;7.60;;;3.92;;
38787;SDS011;24536;45.488;12.238;2023-09-19T09:52:00;9.57;;;4.00;;
38787;SDS011;24536;45.488;12.238;2023-09-19T09:54:32;8.30;;;3.55;;
38787;SDS011;24536;45.488;12.238;2023-09-19T09:57:02;9.45;;;4.00;;
38787;SDS011;24536;45.488;12.238;2023-09-19T09:59:57;7.35;;;4.40;;
38787;SDS011;24536;45.488;12.238;2023-09-19T10:02:40;5.80;;;2.95;;
38787;SDS011;24536;45.488;12.238;2023-09-19T10:05:17;10.68;;;3.42;;
38787;SDS011;24536;45.488;12.238;2023-09-19T10:07:46;5.93;;;3.30;;
38787;SDS011;24536;45.488;12.238;2023-09-19T10:10:32;7.03;;;3.47;;
38787;SDS011;24536;45.488;12.238;2023-09-19T10:13:10;6.22;;;2.70;;
38787;SDS011;24536;45.488;12.238;2023-09-19T10:15:44;5.65;;;2.72;;
38787;SDS011;24536;45.488;12.238;2023-09-19T10:18:23;13.35;;;5.65;;
38787;SDS011;24536;45.488;12.238;2023-09-19T10:20:50;11.93;;;4.88;;
38787;SDS011;24536;45.488;12.238;2023-09-19T10:23:17;5.80;;;3.25;;
38787;SDS011;24536;45.488;12.238;2023-09-19T10:25:51;13.38;;;5.03;;
38787;SDS011;24536;45.488;12.238;2023-09-19T10:28:18;4.60;;;3.30;;
38787;SDS011;24536;45.488;12.238;2023-09-19T10:30:49;6.50;;;3.97;;
38787;SDS011;24536;45.488;12.238;2023-09-19T10:33:17;10.27;;;3.45;;
38787;SDS011;24536;45.488;12.238;2023-09-19T10:35:50;6.53;;;2.88;;
38787;SDS011;24536;45.488;12.238;2023-09-19T10:38:19;8.52;;;3.50;;
38787;SDS011;24536;45.488;12.238;2023-09-19T10:40:49;4.47;;;3.03;;
38787;SDS011;24536;45.488;12.238;2023-09-19T10:43:17;7.75;;;3.30;;
38787;SDS011;24536;45.488;12.238;2023-09-19T10:45:46;5.53;;;2.70;;
38787;SDS011;24536;45.488;12.238;2023-09-19T10:48:14;6.20;;;2.65;;
38787;SDS011;24536;45.488;12.238;2023-09-19T10:53:11;5.60;;;2.83;;
38787;SDS011;24536;45.488;12.238;2023-09-19T10:55:38;4.85;;;2.95;;
38787;SDS011;24536;45.488;12.238;2023-09-19T10:58:07;7.57;;;3.05;;
38787;SDS011;24536;45.488;12.238;2023-09-19T11:00:56;7.25;;;3.50;;
38787;SDS011;24536;45.488;12.238;2023-09-19T11:03:27;6.65;;;4.78;;
38787;SDS011;24536;45.488;12.238;2023-09-19T11:06:09;8.50;;;3.35;;
38787;SDS011;24536;45.488;12.238;2023-09-19T11:08:58;9.20;;;4.65;;
38787;SDS011;24536;45.488;12.238;2023-09-19T11:14:37;5.28;;;3.92;;
38787;SDS011;24536;45.488;12.238;2023-09-19T11:33:20;12.05;;;3.20;;
38787;SDS011;24536;45.488;12.238;2023-09-19T11:36:01;6.82;;;2.75;;
38787;SDS011;24536;45.488;12.238;2023-09-19T11:46:53;7.85;;;2.60;;
38787;SDS011;24536;45.488;12.238;2023-09-19T11:49:31;9.85;;;3.70;;
38787;SDS011;24536;45.488;12.238;2023-09-19T11:51:58;6.25;;;3.20;;
38787;SDS011;24536;45.488;12.238;2023-09-19T11:54:30;9.75;;;3.80;;
38787;SDS011;24536;45.488;12.238;2023-09-19T11:56:57;13.60;;;3.97;;
38787;SDS011;24536;45.488;12.238;2023-09-19T11:59:26;17.15;;;5.32;;
38787;SDS011;24536;45.488;12.238;2023-09-19T12:01:56;6.30;;;3.95;;
38787;SDS011;24536;45.488;12.238;2023-09-19T12:04:33;9.10;;;2.97;;
38787;SDS011;24536;45.488;12.238;2023-09-19T12:06:58;10.13;;;2.92;;
38787;SDS011;24536;45.488;12.238;2023-09-19T12:09:25;8.85;;;3.55;;
38787;SDS011;24536;45.488;12.238;2023-09-19T12:11:50;8.30;;;3.70;;
38787;SDS011;24536;45.488;12.238;2023-09-19T12:14:25;8.50;;;3.35;;
38787;SDS011;24536;45.488;12.238;2023-09-19T12:16:55;9.05;;;2.97;;
38787;SDS011;24536;45.488;12.238;2023-09-19T12:19:21;8.60;;;3.30;;
38787;SDS011;24536;45.488;12.238;2023-09-19T12:22:21;6.25;;;2.45;;
38787;SDS011;24536;45.488;12.238;2023-09-19T12:24:40;6.55;;;2.50;;
38787;SDS011;24536;45.488;12.238;2023-09-19T12:27:09;8.75;;;3.03;;
38787;SDS011;24536;45.488;12.238;2023-09-19T12:29:43;7.50;;;3.15;;
38787;SDS011;24536;45.488;12.238;2023-09-19T12:32:10;4.65;;;2.50;;
38787;SDS011;24536;45.488;12.238;2023-09-19T12:34:36;8.35;;;2.50;;
38787;SDS011;24536;45.488;12.238;2023-09-19T12:37:10;8.43;;;2.40;;
38787;SDS011;24536;45.488;12.238;2023-09-19T12:39:44;5.57;;;2.75;;
38787;SDS011;24536;45.488;12.238;2023-09-19T12:42:17;7.80;;;2.60;;
38787;SDS011;24536;45.488;12.238;2023-09-19T12:44:45;7.80;;;2.50;;
38787;SDS011;24536;45.488;12.238;2023-09-19T12:47:17;4.63;;;2.20;;
38787;SDS011;24536;45.488;12.238;2023-09-19T12:52:47;6.93;;;2.33;;
38787;SDS011;24536;45.488;12.238;2023-09-19T12:55:19;6.85;;;2.33;;
38787;SDS011;24536;45.488;12.238;2023-09-19T12:57:56;5.63;;;2.53;;
38787;SDS011;24536;45.488;12.238;2023-09-19T13:03:13;6.28;;;2.13;;
38787;SDS011;24536;45.488;12.238;2023-09-19T13:06:00;5.60;;;2.58;;
38787;SDS011;24536;45.488;12.238;2023-09-19T13:08:30;9.68;;;2.80;;
38787;SDS011;24536;45.488;12.238;2023-09-19T13:11:12;6.43;;;2.13;;
38787;SDS011;24536;45.488;12.238;2023-09-19T13:16:13;6.47;;;2.55;;
38787;SDS011;24536;45.488;12.238;2023-09-19T13:18:48;6.35;;;3.05;;
38787;SDS011;24536;45.488;12.238;2023-09-19T13:21:28;6.88;;;3.00;;
38787;SDS011;24536;45.488;12.238;2023-09-19T13:24:18;5.05;;;2.22;;
38787;SDS011;24536;45.488;12.238;2023-09-19T13:26:48;4.57;;;2.25;;
38787;SDS011;24536;45.488;12.238;2023-09-19T13:29:14;8.20;;;2.70;;
38787;SDS011;24536;45.488;12.238;2023-09-19T13:31:45;7.27;;;1.97;;
38787;SDS011;24536;45.488;12.238;2023-09-19T13:34:14;7.45;;;2.03;;
38787;SDS011;24536;45.488;12.238;2023-09-19T13:36:42;6.07;;;2.13;;
38787;SDS011;24536;45.488;12.238;2023-09-19T13:39:08;6.32;;;2.47;;
38787;SDS011;24536;45.488;12.238;2023-09-19T13:41:38;6.50;;;2.20;;
38787;SDS011;24536;45.488;12.238;2023-09-19T13:44:04;9.07;;;2.42;;
38787;SDS011;24536;45.488;12.238;2023-09-19T13:46:30;6.75;;;2.33;;
38787;SDS011;24536;45.488;12.238;2023-09-19T13:49:00;5.30;;;1.90;;
38787;SDS011;24536;45.488;12.238;2023-09-19T13:51:31;9.90;;;2.30;;
38787;SDS011;24536;45.488;12.238;2023-09-19T13:53:57;6.43;;;2.45;;
38787;SDS011;24536;45.488;12.238;2023-09-19T13:56:24;5.32;;;1.95;;
38787;SDS011;24536;45.488;12.238;2023-09-19T13:58:53;5.68;;;2.38;;
38787;SDS011;24536;45.488;12.238;2023-09-19T14:01:19;7.65;;;2.70;;
38787;SDS011;24536;45.488;12.238;2023-09-19T14:03:45;5.43;;;2.55;;
38787;SDS011;24536;45.488;12.238;2023-09-19T14:06:12;8.02;;;2.53;;
38787;SDS011;24536;45.488;12.238;2023-09-19T14:08:38;7.45;;;2.95;;
38787;SDS011;24536;45.488;12.238;2023-09-19T14:11:07;10.50;;;2.90;;
38787;SDS011;24536;45.488;12.238;2023-09-19T14:13:33;5.75;;;2.72;;
38787;SDS011;24536;45.488;12.238;2023-09-19T14:16:03;9.65;;;3.08;;
38787;SDS011;24536;45.488;12.238;2023-09-19T14:18:30;4.63;;;2.22;;
38787;SDS011;24536;45.488;12.238;2023-09-19T14:20:56;8.35;;;2.88;;
38787;SDS011;24536;45.488;12.238;2023-09-19T14:23:22;6.03;;;2.90;;
38787;SDS011;24536;45.488;12.238;2023-09-19T14:25:48;7.72;;;2.90;;
38787;SDS011;24536;45.488;12.238;2023-09-19T14:28:15;7.47;;;2.60;;
38787;SDS011;24536;45.488;12.238;2023-09-19T14:30:41;9.40;;;2.80;;
38787;SDS011;24536;45.488;12.238;2023-09-19T14:33:06;7.93;;;3.03;;
38787;SDS011;24536;45.488;12.238;2023-09-19T14:35:32;10.73;;;2.95;;
38787;SDS011;24536;45.488;12.238;2023-09-19T14:37:58;6.50;;;2.75;;
38787;SDS011;24536;45.488;12.238;2023-09-19T14:40:23;6.40;;;2.20;;
38787;SDS011;24536;45.488;12.238;2023-09-19T14:42:50;9.07;;;2.85;;
38787;SDS011;24536;45.488;12.238;2023-09-19T14:45:16;8.07;;;2.80;;
38787;SDS011;24536;45.488;12.238;2023-09-19T14:47:43;7.50;;;2.83;;
38787;SDS011;24536;45.488;12.238;2023-09-19T14:50:10;8.98;;;3.30;;
38787;SDS011;24536;45.488;12.238;2023-09-19T14:52:37;6.28;;;2.58;;
38787;SDS011;24536;45.488;12.238;2023-09-19T14:55:05;6.63;;;2.38;;
38787;SDS011;24536;45.488;12.238;2023-09-19T14:57:31;5.30;;;2.22;;
38787;SDS011;24536;45.488;12.238;2023-09-19T14:59:58;3.90;;;2.72;;
38787;SDS011;24536;45.488;12.238;2023-09-19T15:02:23;4.05;;;2.22;;
38787;SDS011;24536;45.488;12.238;2023-09-19T15:04:49;5.68;;;2.25;;
38787;SDS011;24536;45.488;12.238;2023-09-19T15:07:16;9.05;;;2.90;;
38787;SDS011;24536;45.488;12.238;2023-09-19T15:09:42;5.93;;;2.40;;
38787;SDS011;24536;45.488;12.238;2023-09-19T15:12:08;7.80;;;3.00;;
38787;SDS011;24536;45.488;12.238;2023-09-19T15:14:39;7.07;;;2.95;;
38787;SDS011;24536;45.488;12.238;2023-09-19T15:17:07;14.85;;;2.70;;
38787;SDS011;24536;45.488;12.238;2023-09-19T15:19:32;7.03;;;2.63;;
38787;SDS011;24536;45.488;12.238;2023-09-19T15:21:58;10.75;;;3.20;;
38787;SDS011;24536;45.488;12.238;2023-09-19T15:24:24;5.07;;;2.63;;
38787;SDS011;24536;45.488;12.238;2023-09-19T15:26:51;8.30;;;2.53;;
38787;SDS011;24536;45.488;12.238;2023-09-19T15:29:17;7.13;;;2.95;;
38787;SDS011;24536;45.488;12.238;2023-09-19T15:31:44;13.00;;;3.42;;
38787;SDS011;24536;45.488;12.238;2023-09-19T15:34:10;7.88;;;2.83;;
38787;SDS011;24536;45.488;12.238;2023-09-19T15:36:39;6.90;;;2.85;;
38787;SDS011;24536;45.488;12.238;2023-09-19T15:39:07;10.23;;;3.47;;
38787;SDS011;24536;45.488;12.238;2023-09-19T15:41:36;13.98;;;2.22;;
38787;SDS011;24536;45.488;12.238;2023-09-19T15:44:03;5.05;;;1.63;;
38787;SDS011;24536;45.488;12.238;2023-09-19T15:46:35;5.40;;;1.75;;
38787;SDS011;24536;45.488;12.238;2023-09-19T15:49:02;6.43;;;1.70;;
38787;SDS011;24536;45.488;12.238;2023-09-19T15:51:28;4.38;;;1.77;;
38787;SDS011;24536;45.488;12.238;2023-09-19T15:53:54;3.80;;;1.58;;
38787;SDS011;24536;45.488;12.238;2023-09-19T15:56:21;31.10;;;2.83;;
38787;SDS011;24536;45.488;12.238;2023-09-19T15:58:49;6.53;;;1.52;;
38787;SDS011;24536;45.488;12.238;2023-09-19T16:01:16;3.42;;;0.93;;
38787;SDS011;24536;45.488;12.238;2023-09-19T16:03:43;5.57;;;1.10;;
38787;SDS011;24536;45.488;12.238;2023-09-19T16:06:15;1.17;;;0.75;;
38787;SDS011;24536;45.488;12.238;2023-09-19T16:08:48;2.13;;;0.75;;